createdAt,value
2023-04-22T00:02:04.932Z,7.10
2023-04-22T00:04:34.242Z,7.63
2023-04-22T00:07:02.807Z,7.80
2023-04-22T00:09:30.960Z,8.63
2023-04-22T00:11:59.130Z,6.47
2023-04-22T00:14:27.378Z,7.18
2023-04-22T00:16:58.300Z,7.45
2023-04-22T00:19:26.530Z,6.35
2023-04-22T00:21:54.823Z,6.43
2023-04-22T00:24:23.463Z,6.10
2023-04-22T00:26:52.062Z,7.05
2023-04-22T00:29:20.666Z,6.05
2023-04-22T00:31:49.062Z,6.30
2023-04-22T00:34:19.855Z,6.50
2023-04-22T00:36:48.627Z,6.75
2023-04-22T00:39:17.192Z,6.40
2023-04-22T00:41:45.831Z,6.40
2023-04-22T00:44:14.568Z,6.18
2023-04-22T00:46:43.036Z,6.47
2023-04-22T00:49:11.332Z,6.93
2023-04-22T00:51:41.031Z,6.68
2023-04-22T00:54:09.201Z,5.90
2023-04-22T00:56:39.496Z,6.63
2023-04-22T00:59:08.515Z,6.60
2023-04-22T01:01:37.837Z,7.32
2023-04-22T01:04:06.943Z,5.50
2023-04-22T01:06:38.230Z,6.32
2023-04-22T01:09:08.925Z,5.75
2023-04-22T01:11:37.612Z,5.00
2023-04-22T01:14:06.415Z,7.18
2023-04-22T01:16:39.191Z,5.32
2023-04-22T01:19:08.385Z,6.18
2023-04-22T01:21:37.838Z,5.47
2023-04-22T01:24:08.655Z,5.72
2023-04-22T01:26:37.449Z,6.18
2023-04-22T01:29:07.689Z,5.72
2023-04-22T01:31:36.217Z,5.43
2023-04-22T01:34:04.468Z,5.43
2023-04-22T01:36:33.948Z,5.90
2023-04-22T01:39:03.031Z,7.05
2023-04-22T01:41:33.097Z,5.25
2023-04-22T01:44:02.317Z,5.68
2023-04-22T01:46:30.696Z,5.97
2023-04-22T01:48:59.159Z,5.15
2023-04-22T01:51:27.492Z,5.32
2023-04-22T01:53:55.627Z,4.88
2023-04-22T01:56:23.846Z,5.65
2023-04-22T01:58:53.703Z,5.78
2023-04-22T02:01:21.897Z,5.00
2023-04-22T02:03:50.276Z,4.97
2023-04-22T02:06:18.824Z,5.22
2023-04-22T02:08:47.166Z,5.15
2023-04-22T02:11:15.535Z,5.25
2023-04-22T02:13:43.865Z,5.68
2023-04-22T02:16:13.662Z,5.93
2023-04-22T02:18:42.021Z,5.25
2023-04-22T02:21:10.834Z,5.45
2023-04-22T02:23:40.667Z,4.93
2023-04-22T02:26:09.782Z,5.00
2023-04-22T02:28:40.058Z,5.38
2023-04-22T02:31:08.483Z,5.68
2023-04-22T02:33:39.173Z,6.05
2023-04-22T02:36:08.034Z,5.50
2023-04-22T02:38:36.570Z,5.60
2023-04-22T02:41:09.308Z,5.53
2023-04-22T02:43:37.770Z,5.50
2023-04-22T02:46:06.239Z,5.80
2023-04-22T02:48:34.468Z,5.10
2023-04-22T02:51:04.161Z,5.82
2023-04-22T02:53:32.342Z,5.05
2023-04-22T02:56:00.719Z,5.68
2023-04-22T02:58:29.108Z,5.93
2023-04-22T03:00:58.169Z,5.20
2023-04-22T03:03:26.689Z,6.05
2023-04-22T03:05:55.055Z,5.70
2023-04-22T03:08:24.771Z,5.00
2023-04-22T03:10:53.019Z,6.07
2023-04-22T03:13:21.210Z,4.82
2023-04-22T03:15:49.547Z,5.53
2023-04-22T03:18:17.716Z,5.35
2023-04-22T03:20:45.830Z,5.72
2023-04-22T03:23:14.013Z,4.90
2023-04-22T03:25:43.963Z,6.13
2023-04-22T03:28:12.220Z,6.45
2023-04-22T03:30:40.511Z,6.65
2023-04-22T03:33:09.006Z,5.97
2023-04-22T03:35:37.479Z,6.60
2023-04-22T03:38:05.791Z,6.07
2023-04-22T03:40:33.942Z,6.22
2023-04-22T03:43:03.808Z,6.22
2023-04-22T03:45:32.018Z,6.00
2023-04-22T03:48:00.468Z,5.78
2023-04-22T03:50:28.775Z,6.55
2023-04-22T03:52:57.058Z,6.05
2023-04-22T03:55:25.419Z,6.68
2023-04-22T03:57:53.770Z,6.38
2023-04-22T04:00:23.664Z,7.25
2023-04-22T04:02:52.103Z,5.75
2023-04-22T04:05:20.788Z,6.72
2023-04-22T04:07:48.994Z,6.72
2023-04-22T04:10:17.315Z,5.60
2023-04-22T04:12:45.652Z,7.78
2023-04-22T04:15:13.920Z,7.05
2023-04-22T04:17:43.934Z,6.45
2023-04-22T04:20:12.957Z,6.05
2023-04-22T04:22:41.617Z,7.18
2023-04-22T04:25:10.357Z,6.45
2023-04-22T04:27:39.418Z,7.53
2023-04-22T04:30:09.701Z,7.43
2023-04-22T04:32:37.989Z,6.65
2023-04-22T04:35:08.881Z,6.72
2023-04-22T04:37:37.142Z,8.00
2023-04-22T04:40:06.314Z,7.47
2023-04-22T04:42:34.775Z,7.50
2023-04-22T04:45:03.669Z,6.72
2023-04-22T04:47:34.662Z,7.68
2023-04-22T04:50:04.356Z,6.93
2023-04-22T04:52:34.024Z,6.55
2023-04-22T04:55:02.226Z,7.32
2023-04-22T04:57:30.509Z,7.03
2023-04-22T04:59:58.767Z,6.95
2023-04-22T05:02:27.260Z,7.32
2023-04-22T05:04:55.878Z,7.30
2023-04-22T05:07:24.144Z,6.80
2023-04-22T05:09:53.938Z,5.85
2023-04-22T05:12:22.104Z,6.40
2023-04-22T05:14:50.293Z,6.80
2023-04-22T05:17:18.636Z,6.75
2023-04-22T05:19:46.982Z,6.72
2023-04-22T05:22:15.201Z,6.70
2023-04-22T05:24:43.363Z,5.80
2023-04-22T05:27:13.331Z,6.68
2023-04-22T05:29:41.792Z,6.55
2023-04-22T05:32:10.402Z,7.57
2023-04-22T05:34:38.893Z,7.00
2023-04-22T05:37:08.384Z,7.28
2023-04-22T05:39:36.901Z,8.18
2023-04-22T05:42:05.785Z,7.75
2023-04-22T05:44:35.570Z,8.30
2023-04-22T05:47:03.736Z,7.80
2023-04-22T05:49:31.772Z,7.10
2023-04-22T05:51:59.769Z,7.35
2023-04-22T05:54:28.160Z,8.57
2023-04-22T05:56:56.940Z,8.52
2023-04-22T05:59:25.470Z,8.95
2023-04-22T06:01:55.081Z,7.97
2023-04-22T06:04:23.734Z,8.70
2023-04-22T06:06:53.822Z,8.65
2023-04-22T06:09:22.270Z,8.65
2023-04-22T06:11:50.435Z,6.28
2023-04-22T06:14:18.674Z,6.65
2023-04-22T06:16:47.933Z,6.93
2023-04-22T06:19:17.762Z,6.63
2023-04-22T06:21:46.197Z,7.10
2023-04-22T06:24:14.377Z,7.05
2023-04-22T06:26:42.564Z,8.13
2023-04-22T06:29:10.753Z,6.82
2023-04-22T06:31:38.948Z,6.93
2023-04-22T06:34:07.214Z,6.00
2023-04-22T06:36:38.494Z,6.22
2023-04-22T06:39:07.502Z,6.30
2023-04-22T06:41:35.895Z,7.15
2023-04-22T06:44:04.205Z,6.45
2023-04-22T06:46:32.539Z,6.57
2023-04-22T06:49:00.916Z,5.95
2023-04-22T06:51:29.267Z,6.80
2023-04-22T06:53:59.528Z,6.90
2023-04-22T06:56:27.983Z,6.38
2023-04-22T06:58:56.603Z,8.20
2023-04-22T07:01:25.020Z,6.55
2023-04-22T07:03:53.504Z,5.57
2023-04-22T07:06:21.964Z,6.00
2023-04-22T07:08:50.190Z,6.65
2023-04-22T07:11:19.850Z,7.13
2023-04-22T07:13:48.751Z,6.57
2023-04-22T07:16:17.356Z,6.85
2023-04-22T07:18:45.668Z,6.13
2023-04-22T07:21:14.014Z,5.43
2023-04-22T07:23:42.318Z,5.70
2023-04-22T07:26:10.749Z,5.85
2023-04-22T07:28:40.534Z,5.55
2023-04-22T07:31:08.786Z,5.78
2023-04-22T07:33:37.010Z,6.80
2023-04-22T07:36:05.769Z,6.40
2023-04-22T07:38:33.935Z,5.80
2023-04-22T07:41:02.141Z,6.85
2023-04-22T07:43:30.382Z,6.55
2023-04-22T07:46:00.133Z,5.13
2023-04-22T07:48:28.408Z,5.80
2023-04-22T07:50:56.569Z,5.32
2023-04-22T07:53:24.761Z,6.05
2023-04-22T07:55:53.060Z,5.88
2023-04-22T07:58:22.687Z,6.10
2023-04-22T08:00:50.931Z,6.50
2023-04-22T08:03:20.712Z,6.20
2023-04-22T08:05:48.992Z,6.55
2023-04-22T08:08:17.302Z,6.32
2023-04-22T08:10:45.612Z,6.07
2023-04-22T08:13:14.390Z,5.68
2023-04-22T08:15:43.644Z,5.85
2023-04-22T08:18:11.850Z,5.63
2023-04-22T08:20:41.640Z,5.90
2023-04-22T08:23:10.876Z,6.93
2023-04-22T08:25:39.232Z,5.68
2023-04-22T08:28:07.489Z,5.95
2023-04-22T08:30:35.728Z,5.68
2023-04-22T08:33:04.549Z,5.50
2023-04-22T08:35:32.982Z,6.05
2023-04-22T08:38:02.926Z,6.38
2023-04-22T08:40:31.350Z,6.45
2023-04-22T08:42:59.825Z,6.05
2023-04-22T08:45:28.171Z,5.55
2023-04-22T08:47:57.231Z,4.90
2023-04-22T08:50:25.554Z,4.53
2023-04-22T08:52:54.087Z,4.68
2023-04-22T08:55:23.902Z,4.22
2023-04-22T08:57:52.252Z,3.95
2023-04-22T09:00:21.170Z,4.40
2023-04-22T09:02:51.516Z,3.95
2023-04-22T09:05:21.657Z,4.55
2023-04-22T09:07:50.096Z,4.03
2023-04-22T09:10:18.674Z,4.22
2023-04-22T09:12:49.710Z,4.47
2023-04-22T09:15:18.200Z,4.30
2023-04-22T09:17:46.440Z,3.75
2023-04-22T09:20:16.069Z,4.40
2023-04-22T09:22:46.191Z,3.92
2023-04-22T09:25:18.717Z,4.20
2023-04-22T09:27:51.797Z,4.28
2023-04-22T09:30:24.524Z,3.97
2023-04-22T09:32:56.605Z,4.05
2023-04-22T09:35:25.684Z,3.95
2023-04-22T09:37:54.139Z,4.07
2023-04-22T09:40:23.124Z,4.03
2023-04-22T09:42:53.981Z,3.60
2023-04-22T09:45:30.237Z,3.80
2023-04-22T09:48:00.789Z,3.65
2023-04-22T09:50:29.968Z,3.25
2023-04-22T09:53:00.763Z,3.88
2023-04-22T09:55:31.314Z,3.80
2023-04-22T09:58:07.307Z,3.45
2023-04-22T10:00:37.918Z,3.47
2023-04-22T10:03:10.327Z,3.05
2023-04-22T10:05:39.275Z,3.53
2023-04-22T10:08:09.615Z,3.20
2023-04-22T10:10:38.494Z,3.72
2023-04-22T10:13:08.497Z,3.20
2023-04-22T10:15:39.852Z,3.10
2023-04-22T10:18:11.266Z,3.95
2023-04-22T10:20:42.019Z,3.63
2023-04-22T10:23:15.951Z,3.10
2023-04-22T10:25:44.252Z,3.60
2023-04-22T10:28:14.954Z,3.08
2023-04-22T10:30:43.373Z,3.08
2023-04-22T10:33:40.129Z,3.40
2023-04-22T10:36:11.027Z,2.95
2023-04-22T10:38:40.261Z,3.20
2023-04-22T10:41:14.363Z,4.30
2023-04-22T10:43:45.399Z,2.47
2023-04-22T10:46:59.395Z,3.45
2023-04-22T10:49:30.653Z,3.20
2023-04-22T10:51:59.781Z,3.15
2023-04-22T10:55:07.580Z,3.35
2023-04-22T10:57:40.228Z,2.92
2023-04-22T11:03:26.081Z,2.97
2023-04-22T11:06:14.739Z,2.70
2023-04-22T11:08:46.658Z,3.08
2023-04-22T11:11:15.053Z,3.20
2023-04-22T11:13:44.038Z,3.03
2023-04-22T11:16:13.707Z,3.50
2023-04-22T11:18:41.965Z,2.88
2023-04-22T11:21:10.472Z,3.22
2023-04-22T11:23:38.630Z,2.90
2023-04-22T11:26:07.648Z,3.17
2023-04-22T11:28:36.521Z,3.47
2023-04-22T11:31:06.625Z,2.50
2023-04-22T11:33:36.930Z,3.08
2023-04-22T11:36:05.279Z,3.13
2023-04-22T11:38:33.493Z,2.47
2023-04-22T11:41:01.565Z,2.83
2023-04-22T11:43:29.819Z,2.67
2023-04-22T11:45:58.526Z,2.80
2023-04-22T11:48:26.999Z,3.00
2023-04-22T11:51:12.843Z,3.08
2023-04-22T11:53:41.409Z,2.53
2023-04-22T11:56:09.605Z,2.78
2023-04-22T11:58:41.147Z,2.75
2023-04-22T12:01:14.906Z,2.80
2023-04-22T12:03:43.235Z,2.63
2023-04-22T12:06:13.156Z,2.85
2023-04-22T12:08:44.358Z,3.25
2023-04-22T12:11:13.599Z,2.60
2023-04-22T12:13:46.813Z,3.08
2023-04-22T12:16:16.305Z,2.33
2023-04-22T12:18:50.513Z,2.45
2023-04-22T12:21:21.466Z,2.67
2023-04-22T12:23:52.251Z,2.90
2023-04-22T12:26:26.651Z,3.05
2023-04-22T12:28:56.001Z,4.00
2023-04-22T12:31:24.474Z,3.70
2023-04-22T12:33:52.744Z,3.03
2023-04-22T12:36:23.383Z,3.00
2023-04-22T12:38:51.761Z,4.93
2023-04-22T12:41:20.006Z,2.97
2023-04-22T12:43:48.423Z,3.33
2023-04-22T12:46:16.719Z,3.60
2023-04-22T12:48:44.996Z,3.15
2023-04-22T12:51:13.317Z,2.60
2023-04-22T12:53:42.915Z,2.58
2023-04-22T12:56:11.137Z,2.38
2023-04-22T12:58:39.253Z,2.35
2023-04-22T13:01:07.507Z,2.50
2023-04-22T13:03:35.801Z,2.22
2023-04-22T13:06:04.050Z,2.95
2023-04-22T13:08:32.259Z,2.60
2023-04-22T13:11:01.834Z,3.40
2023-04-22T13:13:30.063Z,2.67
2023-04-22T13:15:58.289Z,2.20
2023-04-22T13:18:26.410Z,2.65
2023-04-22T13:20:56.848Z,2.55
2023-04-22T13:23:25.845Z,2.80
2023-04-22T13:25:54.908Z,2.58
2023-04-22T13:28:24.577Z,2.83
2023-04-22T13:30:53.230Z,2.70
2023-04-22T13:33:21.367Z,2.63
2023-04-22T13:35:49.658Z,2.60
2023-04-22T13:38:17.923Z,2.45
2023-04-22T13:40:46.251Z,2.38
2023-04-22T13:43:14.464Z,2.60
2023-04-22T13:45:44.189Z,2.33
2023-04-22T13:48:12.492Z,2.70
2023-04-22T13:50:42.883Z,2.65
2023-04-22T13:53:11.944Z,2.90
2023-04-22T13:55:40.910Z,2.58
2023-04-22T13:58:09.042Z,2.80
2023-04-22T14:00:37.422Z,2.42
2023-04-22T14:03:07.382Z,2.92
2023-04-22T14:05:35.876Z,2.70
2023-04-22T14:08:04.124Z,2.50
2023-04-22T14:10:32.280Z,2.78
2023-04-22T14:13:00.591Z,2.78
2023-04-22T14:15:28.845Z,2.80
2023-04-22T14:17:57.242Z,3.47
2023-04-22T14:20:27.073Z,2.85
2023-04-22T14:22:55.312Z,2.47
2023-04-22T14:25:23.803Z,3.00
2023-04-22T14:27:51.984Z,2.90
2023-04-22T14:30:21.768Z,2.90
2023-04-22T14:32:50.383Z,2.85
2023-04-22T14:35:20.075Z,2.65
2023-04-22T14:37:49.749Z,2.70
2023-04-22T14:40:19.037Z,2.70
2023-04-22T14:42:47.641Z,2.85
2023-04-22T14:45:16.055Z,3.70
2023-04-22T14:47:44.185Z,2.40
2023-04-22T14:50:12.711Z,3.13
2023-04-22T14:52:41.082Z,2.55
2023-04-22T14:55:19.907Z,2.70
2023-04-22T14:57:51.103Z,2.00
2023-04-22T15:00:19.599Z,2.28
2023-04-22T15:02:47.916Z,2.55
2023-04-22T15:05:16.314Z,2.88
2023-04-22T15:07:44.483Z,3.00
2023-04-22T15:10:14.468Z,3.40
2023-04-22T15:12:42.624Z,2.35
2023-04-22T15:15:13.358Z,3.13
2023-04-22T15:17:42.028Z,2.92
2023-04-22T15:20:10.833Z,2.72
2023-04-22T15:22:40.953Z,2.85
2023-04-22T15:25:10.301Z,2.65
2023-04-22T15:27:40.461Z,2.65
2023-04-22T15:30:11.130Z,2.30
2023-04-22T15:32:40.174Z,2.78
2023-04-22T15:35:09.618Z,2.90
2023-04-22T15:37:37.795Z,2.80
2023-04-22T15:40:07.708Z,2.30
2023-04-22T15:42:36.038Z,3.03
2023-04-22T15:45:06.406Z,2.47
2023-04-22T15:47:35.266Z,2.60
2023-04-22T15:50:06.712Z,2.40
2023-04-22T15:52:35.115Z,2.85
2023-04-22T15:55:03.324Z,3.13
2023-04-22T15:57:34.775Z,3.20
2023-04-22T16:00:11.857Z,2.42
2023-04-22T16:02:41.925Z,2.83
2023-04-22T16:05:11.447Z,2.50
2023-04-22T16:07:40.321Z,2.90
2023-04-22T16:10:10.266Z,2.92
2023-04-22T16:12:38.424Z,2.80
2023-04-22T16:15:09.910Z,2.67
2023-04-22T16:17:38.358Z,3.40
2023-04-22T16:20:07.907Z,2.50
2023-04-22T16:22:36.719Z,2.75
2023-04-22T16:25:05.353Z,2.88
2023-04-22T16:27:33.532Z,2.40
2023-04-22T16:30:02.006Z,2.40
2023-04-22T16:32:32.047Z,2.70
2023-04-22T16:35:00.298Z,2.90
2023-04-22T16:37:28.508Z,2.40
2023-04-22T16:39:56.759Z,2.60
2023-04-22T16:42:25.022Z,2.85
2023-04-22T16:44:53.116Z,2.65
2023-04-22T16:47:21.520Z,2.38
2023-04-22T16:49:51.182Z,2.45
2023-04-22T16:52:19.542Z,2.63
2023-04-22T16:54:47.858Z,3.20
2023-04-22T16:57:16.040Z,2.17
2023-04-22T16:59:44.245Z,2.78
2023-04-22T17:02:12.528Z,2.70
2023-04-22T17:04:40.777Z,3.28
2023-04-22T17:07:10.905Z,2.83
2023-04-22T17:09:39.259Z,2.78
2023-04-22T17:12:08.063Z,2.95
2023-04-22T17:14:36.356Z,3.35
2023-04-22T17:17:04.540Z,3.15
2023-04-22T17:19:32.753Z,2.90
2023-04-22T17:22:01.866Z,2.75
2023-04-22T17:24:31.683Z,3.17
2023-04-22T17:26:59.740Z,3.28
2023-04-22T17:29:28.388Z,3.10
2023-04-22T17:31:56.622Z,2.63
2023-04-22T17:34:25.554Z,3.50
2023-04-22T17:36:53.722Z,3.40
2023-04-22T17:39:21.986Z,3.08
2023-04-22T17:41:51.728Z,3.35
2023-04-22T17:44:20.128Z,3.25
2023-04-22T17:46:48.357Z,3.65
2023-04-22T17:49:16.564Z,2.92
2023-04-22T17:51:44.719Z,3.22
2023-04-22T17:54:12.892Z,3.72
2023-04-22T17:56:41.166Z,3.17
2023-04-22T17:59:11.438Z,3.35
2023-04-22T18:01:40.080Z,2.97
2023-04-22T18:04:08.493Z,3.20
2023-04-22T18:06:36.859Z,2.90
2023-04-22T18:09:05.738Z,2.75
2023-04-22T18:11:33.948Z,2.67
2023-04-22T18:14:02.405Z,2.63
2023-04-22T18:16:32.481Z,2.88
2023-04-22T18:19:02.313Z,3.08
2023-04-22T18:21:31.451Z,2.95
2023-04-22T18:23:59.661Z,2.90
2023-04-22T18:26:27.954Z,3.60
2023-04-22T18:28:56.087Z,3.47
2023-04-22T18:31:24.308Z,3.03
2023-04-22T18:33:54.436Z,3.05
2023-04-22T18:36:23.257Z,3.15
2023-04-22T18:38:52.108Z,3.58
2023-04-22T18:41:20.752Z,2.92
2023-04-22T18:43:48.931Z,3.10
2023-04-22T18:46:17.196Z,4.55
2023-04-22T18:48:45.309Z,2.83
2023-04-22T18:51:14.985Z,2.70
2023-04-22T18:53:43.212Z,2.63
2023-04-22T18:56:11.492Z,3.33
2023-04-22T18:58:39.618Z,3.28
2023-04-22T19:01:08.626Z,3.03
2023-04-22T19:03:36.932Z,3.22
2023-04-22T19:06:05.681Z,3.88
2023-04-22T19:08:35.757Z,4.25
2023-04-22T19:11:04.035Z,3.85
2023-04-22T19:13:32.630Z,3.00
2023-04-22T19:16:01.257Z,3.45
2023-04-22T19:18:29.640Z,2.95
2023-04-22T19:20:57.855Z,3.78
2023-04-22T19:23:26.122Z,4.03
2023-04-22T19:25:55.977Z,3.35
2023-04-22T19:28:24.195Z,2.97
2023-04-22T19:30:52.664Z,3.85
2023-04-22T19:33:21.064Z,3.53
2023-04-22T19:35:49.265Z,3.42
2023-04-22T19:38:19.301Z,3.78
2023-04-22T19:40:47.500Z,3.13
2023-04-22T19:43:19.244Z,3.17
2023-04-22T19:45:47.514Z,2.72
2023-04-22T19:48:16.430Z,2.85
2023-04-22T19:50:45.708Z,3.70
2023-04-22T19:53:14.988Z,3.40
2023-04-22T19:55:44.701Z,2.97
2023-04-22T19:58:13.086Z,3.10
2023-04-22T20:00:43.750Z,2.83
2023-04-22T20:03:14.611Z,3.13
2023-04-22T20:05:44.364Z,3.05
2023-04-22T20:08:14.844Z,2.90
2023-04-22T20:10:43.721Z,3.55
2023-04-22T20:13:12.251Z,3.88
2023-04-22T20:15:42.834Z,3.25
2023-04-22T20:18:12.110Z,3.45
2023-04-22T20:20:44.920Z,5.53
2023-04-22T20:23:14.989Z,3.65
2023-04-22T20:25:45.763Z,2.95
2023-04-22T20:28:14.427Z,3.22
2023-04-22T20:30:45.741Z,3.50
2023-04-22T20:33:17.189Z,3.10
2023-04-22T20:35:48.028Z,3.55
2023-04-22T20:38:19.528Z,3.53
2023-04-22T20:40:48.878Z,3.35
2023-04-22T20:43:17.033Z,2.92
2023-04-22T20:45:46.561Z,3.40
2023-04-22T20:48:14.714Z,2.40
2023-04-22T20:50:44.046Z,3.30
2023-04-22T20:53:12.641Z,3.53
2023-04-22T20:55:41.418Z,2.90
2023-04-22T20:58:09.600Z,3.10
2023-04-22T21:00:37.847Z,3.53
2023-04-22T21:03:09.821Z,3.13
2023-04-22T21:05:41.394Z,3.10
2023-04-22T21:08:19.830Z,3.45
2023-04-22T21:10:48.811Z,3.88
2023-04-22T21:13:17.545Z,3.58
2023-04-22T21:15:54.032Z,3.60
2023-04-22T21:18:26.111Z,3.53
2023-04-22T21:20:54.999Z,3.05
2023-04-22T21:23:25.240Z,4.60
2023-04-22T21:25:56.009Z,3.53
2023-04-22T21:28:24.810Z,3.05
2023-04-22T21:30:53.395Z,3.35
2023-04-22T21:33:25.235Z,4.43
2023-04-22T21:35:53.779Z,3.58
2023-04-22T21:38:22.004Z,3.65
2023-04-22T21:40:50.237Z,3.95
2023-04-22T21:43:18.512Z,3.60
2023-04-22T21:45:46.792Z,3.40
2023-04-22T21:48:15.084Z,3.70
2023-04-22T21:50:45.615Z,3.47
2023-04-22T21:53:13.927Z,3.30
2023-04-22T21:55:42.078Z,3.13
2023-04-22T21:58:10.038Z,2.67
2023-04-22T22:00:38.795Z,3.67
2023-04-22T22:03:07.320Z,3.78
2023-04-22T22:05:36.060Z,3.08
2023-04-22T22:08:05.843Z,4.13
2023-04-22T22:10:34.267Z,3.25
2023-04-22T22:13:02.595Z,3.55
2023-04-22T22:15:30.768Z,3.58
2023-04-22T22:17:59.468Z,3.40
2023-04-22T22:20:29.703Z,4.25
2023-04-22T22:22:57.818Z,3.35
2023-04-22T22:25:27.760Z,3.38
2023-04-22T22:27:56.002Z,3.28
2023-04-22T22:30:24.206Z,3.53
2023-04-22T22:32:52.449Z,3.22
2023-04-22T22:35:21.323Z,3.40
2023-04-22T22:37:49.670Z,3.28
2023-04-22T22:40:17.875Z,3.10
2023-04-22T22:42:47.745Z,2.92
2023-04-22T22:45:16.053Z,3.60
2023-04-22T22:47:44.537Z,3.58
2023-04-22T22:50:12.891Z,3.58
2023-04-22T22:52:41.367Z,3.15
2023-04-22T22:55:10.162Z,3.70
2023-04-22T22:57:38.438Z,3.67
2023-04-22T23:00:12.085Z,4.40
2023-04-22T23:02:40.512Z,3.47
2023-04-22T23:05:10.923Z,3.63
2023-04-22T23:07:39.253Z,3.45
2023-04-22T23:10:08.853Z,3.00
2023-04-22T23:12:37.041Z,3.15
2023-04-22T23:15:07.952Z,3.70
2023-04-22T23:17:36.950Z,3.35
2023-04-22T23:20:07.600Z,4.30
2023-04-22T23:22:37.546Z,3.88
2023-04-22T23:25:06.626Z,3.08
2023-04-22T23:27:35.491Z,3.33
2023-04-22T23:30:04.690Z,3.03
2023-04-22T23:32:36.653Z,3.08
2023-04-22T23:35:06.109Z,3.38
2023-04-22T23:37:35.983Z,3.40
2023-04-22T23:40:04.785Z,3.97
2023-04-22T23:42:33.194Z,3.67
2023-04-22T23:45:01.524Z,3.95
2023-04-22T23:47:31.411Z,4.13
2023-04-22T23:50:01.240Z,3.65
2023-04-22T23:52:29.477Z,3.50
2023-04-22T23:54:58.826Z,3.33
2023-04-22T23:57:27.641Z,3.20
2023-04-22T23:59:56.247Z,3.50
